createdAt,value
2022-11-17T00:01:20.906Z,98111.00
2022-11-17T00:03:49.106Z,98113.00
2022-11-17T00:06:16.636Z,98134.00
2022-11-17T00:08:43.329Z,98124.00
2022-11-17T00:11:10.009Z,98115.00
2022-11-17T00:13:54.770Z,98111.00
2022-11-17T00:16:22.039Z,98114.00
2022-11-17T00:19:07.850Z,98109.00
2022-11-17T00:21:34.943Z,98105.00
2022-11-17T00:24:01.507Z,98101.00
2022-11-17T00:26:30.749Z,98100.00
2022-11-17T00:28:59.691Z,98101.00
2022-11-17T00:31:46.986Z,98108.00
2022-11-17T00:34:19.572Z,98096.00
2022-11-17T00:36:54.271Z,98097.00
2022-11-17T00:39:22.595Z,98091.00
2022-11-17T00:41:49.708Z,98089.00
2022-11-17T00:44:16.810Z,98094.00
2022-11-17T00:46:43.520Z,98087.00
2022-11-17T00:49:11.391Z,98080.00
2022-11-17T00:51:38.824Z,98081.00
2022-11-17T00:54:06.961Z,98074.00
2022-11-17T00:56:33.860Z,98068.00
2022-11-17T00:59:00.815Z,98047.00
2022-11-17T01:01:27.656Z,98063.00
2022-11-17T01:04:03.191Z,98065.00
2022-11-17T01:06:38.990Z,98071.00
2022-11-17T01:09:08.448Z,98047.00
2022-11-17T01:11:35.070Z,98045.00
2022-11-17T01:14:02.029Z,98042.00
2022-11-17T01:16:30.409Z,98051.00
2022-11-17T01:19:00.075Z,98048.00
2022-11-17T01:21:27.907Z,98036.00
2022-11-17T01:23:56.333Z,98034.00
2022-11-17T01:26:28.416Z,98038.00
2022-11-17T01:28:55.928Z,98026.00
2022-11-17T01:31:27.740Z,98031.00
2022-11-17T01:33:55.172Z,98021.00
2022-11-17T01:36:27.713Z,98026.00
2022-11-17T01:38:54.772Z,98022.00
2022-11-17T01:41:24.282Z,98024.00
2022-11-17T01:43:53.561Z,98017.00
2022-11-17T01:46:23.217Z,98008.00
2022-11-17T01:48:51.792Z,97993.00
2022-11-17T01:51:19.195Z,97995.00
2022-11-17T01:53:47.471Z,97992.00
2022-11-17T01:56:22.289Z,97994.00
2022-11-17T01:58:58.322Z,97989.00
2022-11-17T02:01:24.950Z,97986.00
2022-11-17T02:03:51.801Z,97986.00
2022-11-17T02:06:28.685Z,97991.00
2022-11-17T02:08:56.554Z,97971.00
2022-11-17T02:11:24.284Z,97973.00
2022-11-17T02:13:54.676Z,97973.00
2022-11-17T02:16:21.317Z,97966.00
2022-11-17T02:18:48.822Z,97970.00
2022-11-17T02:21:33.950Z,97963.00
2022-11-17T02:24:20.097Z,97960.00
2022-11-17T02:27:00.492Z,97954.00
2022-11-17T02:29:35.190Z,97963.00
2022-11-17T02:32:06.909Z,97960.00
2022-11-17T02:34:36.609Z,97955.00
2022-11-17T02:37:15.112Z,97961.00
2022-11-17T02:39:50.534Z,97952.00
2022-11-17T02:42:17.049Z,97943.00
2022-11-17T02:44:52.236Z,97945.00
2022-11-17T02:47:27.204Z,97937.00
2022-11-17T02:50:07.158Z,97944.00
2022-11-17T02:52:34.276Z,97933.00
2022-11-17T02:55:03.050Z,97930.00
2022-11-17T02:57:40.746Z,97931.00
2022-11-17T03:00:28.246Z,97931.00
2022-11-17T03:03:28.132Z,97923.00
2022-11-17T03:06:08.939Z,97920.00
2022-11-17T03:08:47.868Z,97911.00
2022-11-17T03:11:14.707Z,97910.00
2022-11-17T03:13:43.908Z,97909.00
2022-11-17T03:16:16.504Z,97895.00
2022-11-17T03:19:03.425Z,97884.00
2022-11-17T03:21:32.996Z,97876.00
2022-11-17T03:24:09.449Z,97879.00
2022-11-17T03:26:44.163Z,97879.00
2022-11-17T03:29:15.188Z,97879.00
2022-11-17T03:31:45.505Z,97892.00
2022-11-17T03:34:16.611Z,97876.00
2022-11-17T03:36:48.193Z,97883.00
2022-11-17T03:39:23.873Z,97878.00
2022-11-17T03:41:55.214Z,97879.00
2022-11-17T03:44:24.419Z,97879.00
2022-11-17T03:46:54.493Z,97873.00
2022-11-17T03:49:32.169Z,97885.00
2022-11-17T03:51:58.900Z,97882.00
2022-11-17T03:54:25.610Z,97881.00
2022-11-17T03:57:07.628Z,97895.00
2022-11-17T03:59:43.292Z,97888.00
2022-11-17T04:02:18.071Z,97903.00
2022-11-17T04:05:02.827Z,97889.00
2022-11-17T04:07:29.575Z,97890.00
2022-11-17T04:09:56.232Z,97888.00
2022-11-17T04:12:41.582Z,97873.00
2022-11-17T04:15:28.864Z,97887.00
2022-11-17T04:17:56.113Z,97884.00
2022-11-17T04:20:22.982Z,97894.00
2022-11-17T04:23:07.047Z,97888.00
2022-11-17T04:25:52.282Z,97889.00
2022-11-17T04:28:38.110Z,97884.00
2022-11-17T04:31:15.741Z,97879.00
2022-11-17T04:33:47.565Z,97877.00
2022-11-17T04:36:16.868Z,97878.00
2022-11-17T04:38:45.783Z,97886.00
2022-11-17T04:41:32.947Z,97877.00
2022-11-17T04:44:00.840Z,97885.00
2022-11-17T04:46:29.295Z,97877.00
2022-11-17T04:48:58.077Z,97884.00
2022-11-17T04:51:25.904Z,97892.00
2022-11-17T04:53:52.922Z,97882.00
2022-11-17T04:56:20.490Z,97882.00
2022-11-17T04:58:47.664Z,97873.00
2022-11-17T05:01:16.485Z,97888.00
2022-11-17T05:03:51.455Z,97888.00
2022-11-17T05:06:19.309Z,97899.00
2022-11-17T05:08:46.061Z,97906.00
2022-11-17T05:11:32.818Z,97901.00
2022-11-17T05:13:59.707Z,97906.00
2022-11-17T05:16:45.075Z,97909.00
2022-11-17T05:19:18.181Z,97905.00
2022-11-17T05:21:45.035Z,97916.00
2022-11-17T05:24:14.289Z,97932.00
2022-11-17T05:26:42.553Z,97924.00
2022-11-17T05:29:10.908Z,97934.00
2022-11-17T05:31:37.923Z,97934.00
2022-11-17T05:34:06.082Z,97944.00
2022-11-17T05:36:33.311Z,97934.00
2022-11-17T05:39:00.475Z,97944.00
2022-11-17T05:41:28.805Z,97962.00
2022-11-17T05:43:55.907Z,97948.00
2022-11-17T05:46:23.473Z,97952.00
2022-11-17T05:48:51.170Z,97976.00
2022-11-17T05:51:20.203Z,97969.00
2022-11-17T05:53:47.619Z,97974.00
2022-11-17T05:56:37.375Z,97978.00
2022-11-17T05:59:22.141Z,97987.00
2022-11-17T06:02:22.013Z,97987.00
2022-11-17T06:04:51.734Z,97989.00
2022-11-17T06:07:19.493Z,97996.00
2022-11-17T06:09:46.529Z,98007.00
2022-11-17T06:12:13.117Z,98011.00
2022-11-17T06:14:39.915Z,98026.00
2022-11-17T06:17:35.149Z,98017.00
2022-11-17T06:20:09.855Z,98033.00
2022-11-17T06:22:36.725Z,98018.00
2022-11-17T06:25:04.888Z,98039.00
2022-11-17T06:27:33.156Z,98052.00
2022-11-17T06:30:03.687Z,98036.00
2022-11-17T06:32:31.512Z,98052.00
2022-11-17T06:34:58.811Z,98063.00
2022-11-17T06:37:25.515Z,98075.00
2022-11-17T06:39:52.651Z,98074.00
2022-11-17T06:42:19.256Z,98074.00
2022-11-17T06:44:45.828Z,98087.00
2022-11-17T06:47:12.406Z,98100.00
2022-11-17T06:49:39.215Z,98098.00
2022-11-17T06:52:05.803Z,98095.00
2022-11-17T06:54:32.411Z,98105.00
2022-11-17T06:56:59.057Z,98111.00
2022-11-17T06:59:25.761Z,98116.00
2022-11-17T07:01:52.583Z,98120.00
2022-11-17T07:04:19.243Z,98124.00
2022-11-17T07:06:45.949Z,98125.00
2022-11-17T07:09:12.568Z,98125.00
2022-11-17T07:11:39.128Z,98135.00
2022-11-17T07:14:05.738Z,98148.00
2022-11-17T07:16:32.787Z,98148.00
2022-11-17T07:18:59.660Z,98163.00
2022-11-17T07:21:26.642Z,98154.00
2022-11-17T07:23:53.232Z,98153.00
2022-11-17T07:26:19.941Z,98156.00
2022-11-17T07:28:46.568Z,98170.00
2022-11-17T07:31:13.212Z,98172.00
2022-11-17T07:33:39.831Z,98169.00
2022-11-17T07:36:09.879Z,98183.00
2022-11-17T07:38:38.338Z,98187.00
2022-11-17T07:41:06.891Z,98186.00
2022-11-17T07:43:34.620Z,98186.00
2022-11-17T07:46:10.664Z,98196.00
2022-11-17T07:48:38.084Z,98205.00
2022-11-17T07:51:06.056Z,98208.00
2022-11-17T07:53:35.270Z,98224.00
2022-11-17T07:56:06.335Z,98222.00
2022-11-17T07:58:33.466Z,98224.00
2022-11-17T08:01:16.082Z,98235.00
2022-11-17T08:03:43.774Z,98225.00
2022-11-17T08:06:10.660Z,98231.00
2022-11-17T08:08:38.541Z,98235.00
2022-11-17T08:11:10.626Z,98230.00
2022-11-17T08:13:38.936Z,98243.00
2022-11-17T08:16:06.852Z,98250.00
2022-11-17T08:18:34.488Z,98256.00
2022-11-17T08:21:03.954Z,98261.00
2022-11-17T08:23:30.602Z,98264.00
2022-11-17T08:25:57.292Z,98273.00
2022-11-17T08:28:23.990Z,98267.00
2022-11-17T08:30:50.740Z,98275.00
2022-11-17T08:33:17.674Z,98272.00
2022-11-17T08:35:44.299Z,98283.00
2022-11-17T08:38:15.455Z,98272.00
2022-11-17T08:40:49.934Z,98283.00
2022-11-17T08:43:16.516Z,98302.00
2022-11-17T08:45:43.129Z,98299.00
2022-11-17T08:48:09.893Z,98309.00
2022-11-17T08:50:36.585Z,98311.00
2022-11-17T08:53:03.293Z,98310.00
2022-11-17T08:55:30.094Z,98325.00
2022-11-17T08:57:56.967Z,98330.00
2022-11-17T09:00:24.267Z,98335.00
2022-11-17T09:02:50.859Z,98333.00
2022-11-17T09:05:17.428Z,98339.00
2022-11-17T09:07:44.307Z,98343.00
2022-11-17T09:10:11.336Z,98347.00
2022-11-17T09:12:38.448Z,98355.00
2022-11-17T09:15:05.836Z,98368.00
2022-11-17T09:17:32.828Z,98362.00
2022-11-17T09:19:59.412Z,98374.00
2022-11-17T09:22:25.998Z,98370.00
2022-11-17T09:24:52.612Z,98371.00
2022-11-17T09:27:19.472Z,98375.00
2022-11-17T09:29:46.017Z,98385.00
2022-11-17T09:32:13.462Z,98382.00
2022-11-17T09:34:40.177Z,98385.00
2022-11-17T09:37:06.836Z,98385.00
2022-11-17T09:39:33.451Z,98391.00
2022-11-17T09:42:00.180Z,98393.00
2022-11-17T09:45:05.119Z,98395.00
2022-11-17T09:48:33.383Z,98393.00
2022-11-17T09:50:56.361Z,98402.00
2022-11-17T09:53:36.431Z,98415.00
2022-11-17T09:56:12.331Z,98416.00
2022-11-17T09:58:58.838Z,98431.00
2022-11-17T10:01:28.551Z,98422.00
2022-11-17T10:03:57.072Z,98430.00
2022-11-17T10:06:27.421Z,98445.00
2022-11-17T10:09:24.015Z,98434.00
2022-11-17T10:11:53.896Z,98444.00
2022-11-17T10:14:23.679Z,98462.00
2022-11-17T10:16:55.463Z,98452.00
2022-11-17T10:19:25.414Z,98458.00
2022-11-17T10:22:10.699Z,98458.00
2022-11-17T10:24:38.496Z,98466.00
2022-11-17T10:27:32.661Z,98473.00
2022-11-17T10:30:07.007Z,98480.00
2022-11-17T10:32:52.656Z,98484.00
2022-11-17T10:35:20.747Z,98482.00
2022-11-17T10:38:12.935Z,98490.00
2022-11-17T10:40:39.810Z,98484.00
2022-11-17T10:43:12.599Z,98479.00
2022-11-17T10:45:51.236Z,98492.00
2022-11-17T10:48:20.555Z,98489.00
2022-11-17T10:51:16.189Z,98489.00
2022-11-17T10:53:46.595Z,98489.00
2022-11-17T10:56:17.843Z,98488.00
2022-11-17T10:59:14.129Z,98499.00
2022-11-17T11:01:46.189Z,98493.00
2022-11-17T11:04:34.505Z,98500.00
2022-11-17T11:07:21.972Z,98506.00
2022-11-17T11:10:10.445Z,98503.00
2022-11-17T11:12:50.499Z,98504.00
2022-11-17T11:15:21.550Z,98514.00
2022-11-17T11:17:48.426Z,98505.00
2022-11-17T11:20:17.715Z,98508.00
2022-11-17T11:23:19.380Z,98515.00
2022-11-17T11:25:56.119Z,98527.00
2022-11-17T11:28:47.974Z,98539.00
2022-11-17T11:31:35.963Z,98537.00
2022-11-17T11:34:23.955Z,98552.00
2022-11-17T11:37:05.562Z,98547.00
2022-11-17T11:39:55.545Z,98551.00
2022-11-17T11:42:43.705Z,98549.00
2022-11-17T11:45:19.058Z,98543.00
2022-11-17T11:47:51.502Z,98550.00
2022-11-17T11:50:21.759Z,98550.00
2022-11-17T11:53:04.423Z,98547.00
2022-11-17T11:55:35.309Z,98555.00
2022-11-17T11:58:13.819Z,98545.00
2022-11-17T12:00:42.903Z,98553.00
2022-11-17T12:03:35.530Z,98550.00
2022-11-17T12:06:38.785Z,98553.00
2022-11-17T12:09:29.403Z,98570.00
2022-11-17T12:12:00.326Z,98573.00
2022-11-17T12:14:35.765Z,98580.00
2022-11-17T12:17:07.428Z,98578.00
2022-11-17T12:19:54.046Z,98578.00
2022-11-17T12:22:29.453Z,98580.00
2022-11-17T12:25:03.280Z,98585.00
2022-11-17T12:27:35.928Z,98591.00
2022-11-17T12:30:04.710Z,98588.00
2022-11-17T12:32:49.462Z,98588.00
2022-11-17T12:35:26.888Z,98580.00
2022-11-17T12:38:18.837Z,98591.00
2022-11-17T12:40:50.829Z,98593.00
2022-11-17T12:43:23.495Z,98603.00
2022-11-17T12:45:52.928Z,98593.00
2022-11-17T12:48:34.742Z,98596.00
2022-11-17T12:51:42.946Z,98610.00
2022-11-17T12:54:53.179Z,98583.00
2022-11-17T12:57:28.937Z,98598.00
2022-11-17T13:00:14.147Z,98611.00
2022-11-17T13:02:57.698Z,98614.00
2022-11-17T13:05:30.193Z,98616.00
2022-11-17T13:08:11.760Z,98621.00
2022-11-17T13:10:38.453Z,98630.00
2022-11-17T13:13:16.757Z,98627.00
2022-11-17T13:15:44.747Z,98630.00
2022-11-17T13:18:30.652Z,98632.00
2022-11-17T13:20:58.394Z,98631.00
2022-11-17T13:23:27.842Z,98628.00
2022-11-17T13:26:16.184Z,98632.00
2022-11-17T13:28:43.904Z,98627.00
2022-11-17T13:31:18.790Z,98634.00
2022-11-17T13:34:00.909Z,98634.00
2022-11-17T13:36:27.597Z,98639.00
2022-11-17T13:39:00.340Z,98639.00
2022-11-17T13:41:29.534Z,98642.00
2022-11-17T13:43:57.266Z,98648.00
2022-11-17T13:46:23.904Z,98641.00
2022-11-17T13:48:51.673Z,98650.00
2022-11-17T13:51:25.560Z,98653.00
2022-11-17T13:54:06.965Z,98654.00
2022-11-17T13:56:38.759Z,98661.00
2022-11-17T13:59:29.889Z,98665.00
2022-11-17T14:02:15.094Z,98671.00
2022-11-17T14:04:42.747Z,98675.00
2022-11-17T14:07:11.651Z,98682.00
2022-11-17T14:09:38.383Z,98683.00
2022-11-17T14:12:11.764Z,98683.00
2022-11-17T14:14:45.366Z,98688.00
2022-11-17T14:17:24.957Z,98690.00
2022-11-17T14:19:51.636Z,98693.00
2022-11-17T14:22:24.712Z,98690.00
2022-11-17T14:24:56.148Z,98686.00
2022-11-17T14:27:31.961Z,98695.00
2022-11-17T14:29:58.718Z,98697.00
2022-11-17T14:32:25.283Z,98692.00
2022-11-17T14:34:51.881Z,98704.00
2022-11-17T14:37:18.751Z,98701.00
2022-11-17T14:39:45.382Z,98709.00
2022-11-17T14:42:11.968Z,98715.00
2022-11-17T14:44:38.557Z,98715.00
2022-11-17T14:47:05.190Z,98721.00
2022-11-17T14:49:31.841Z,98725.00
2022-11-17T14:51:59.318Z,98722.00
2022-11-17T14:54:26.264Z,98732.00
2022-11-17T14:56:52.856Z,98732.00
2022-11-17T14:59:19.526Z,98732.00
2022-11-17T15:01:46.197Z,98731.00
2022-11-17T15:04:35.121Z,98738.00
2022-11-17T15:07:01.301Z,98741.00
2022-11-17T15:09:28.142Z,98740.00
2022-11-17T15:11:54.741Z,98748.00
2022-11-17T15:14:22.327Z,98748.00
2022-11-17T15:16:49.211Z,98755.00
2022-11-17T15:19:15.885Z,98760.00
2022-11-17T15:21:42.603Z,98761.00
2022-11-17T15:24:09.426Z,98766.00
2022-11-17T15:26:36.179Z,98770.00
2022-11-17T15:29:02.872Z,98770.00
2022-11-17T15:31:30.059Z,98777.00
2022-11-17T15:33:56.749Z,98780.00
2022-11-17T15:36:24.181Z,98786.00
2022-11-17T15:38:50.792Z,98788.00
2022-11-17T15:41:17.508Z,98780.00
2022-11-17T15:43:45.651Z,98786.00
2022-11-17T15:46:14.639Z,98800.00
2022-11-17T15:48:43.297Z,98798.00
2022-11-17T15:51:18.590Z,98801.00
2022-11-17T15:53:46.900Z,98797.00
2022-11-17T15:56:21.426Z,98805.00
2022-11-17T15:58:49.317Z,98801.00
2022-11-17T16:01:26.480Z,98805.00
2022-11-17T16:03:57.730Z,98807.00
2022-11-17T16:06:24.416Z,98807.00
2022-11-17T16:08:51.146Z,98817.00
2022-11-17T16:11:17.896Z,98809.00
2022-11-17T16:13:44.640Z,98813.00
2022-11-17T16:16:13.929Z,98822.00
2022-11-17T16:18:40.923Z,98819.00
2022-11-17T16:21:12.884Z,98825.00
2022-11-17T16:23:48.087Z,98829.00
2022-11-17T16:26:16.579Z,98826.00
2022-11-17T16:28:43.527Z,98828.00
2022-11-17T16:31:13.693Z,98827.00
2022-11-17T16:33:40.915Z,98834.00
2022-11-17T16:36:08.352Z,98844.00
2022-11-17T16:38:35.345Z,98845.00
2022-11-17T16:41:02.023Z,98845.00
2022-11-17T16:43:28.763Z,98846.00
2022-11-17T16:45:55.441Z,98850.00
2022-11-17T16:48:22.052Z,98846.00
2022-11-17T16:50:49.171Z,98852.00
2022-11-17T16:53:15.871Z,98853.00
2022-11-17T16:55:42.550Z,98857.00
2022-11-17T16:58:10.433Z,98864.00
2022-11-17T17:00:37.001Z,98869.00
2022-11-17T17:03:04.020Z,98873.00
2022-11-17T17:05:30.820Z,98867.00
2022-11-17T17:07:57.496Z,98869.00
2022-11-17T17:10:24.640Z,98871.00
2022-11-17T17:12:51.356Z,98867.00
2022-11-17T17:15:18.093Z,98865.00
2022-11-17T17:17:46.017Z,98861.00
2022-11-17T17:20:12.637Z,98869.00
2022-11-17T17:22:39.229Z,98875.00
2022-11-17T17:25:06.782Z,98871.00
2022-11-17T17:27:33.455Z,98876.00
2022-11-17T17:30:00.114Z,98885.00
2022-11-17T17:32:26.770Z,98876.00
2022-11-17T17:34:53.424Z,98879.00
2022-11-17T17:37:20.466Z,98882.00
2022-11-17T17:39:47.028Z,98890.00
2022-11-17T17:42:13.951Z,98893.00
2022-11-17T17:44:43.564Z,98897.00
2022-11-17T17:47:10.193Z,98903.00
2022-11-17T17:49:36.875Z,98906.00
2022-11-17T17:52:03.712Z,98907.00
2022-11-17T17:54:30.410Z,98919.00
2022-11-17T17:56:57.801Z,98914.00
2022-11-17T17:59:24.594Z,98917.00
2022-11-17T18:01:51.918Z,98920.00
2022-11-17T18:04:18.584Z,98926.00
2022-11-17T18:06:47.780Z,98935.00
2022-11-17T18:09:18.720Z,98933.00
2022-11-17T18:11:47.989Z,98940.00
2022-11-17T18:14:15.643Z,98950.00
2022-11-17T18:16:42.265Z,98956.00
2022-11-17T18:19:13.963Z,98955.00
2022-11-17T18:21:40.905Z,98953.00
2022-11-17T18:24:07.621Z,98958.00
2022-11-17T18:26:36.130Z,98958.00
2022-11-17T18:29:06.554Z,98966.00
2022-11-17T18:31:35.375Z,98966.00
2022-11-17T18:34:18.761Z,98961.00
2022-11-17T18:36:45.628Z,98972.00
2022-11-17T18:39:12.591Z,98971.00
2022-11-17T18:41:42.028Z,98987.00
2022-11-17T18:44:12.536Z,98985.00
2022-11-17T18:46:39.199Z,98982.00
2022-11-17T18:49:05.990Z,98986.00
2022-11-17T18:51:34.295Z,98993.00
2022-11-17T18:54:02.625Z,98997.00
2022-11-17T18:56:33.677Z,98991.00
2022-11-17T18:59:00.470Z,99000.00
2022-11-17T19:01:29.266Z,99008.00
2022-11-17T19:03:58.186Z,98997.00
2022-11-17T19:06:27.893Z,99008.00
2022-11-17T19:08:55.174Z,99003.00
2022-11-17T19:11:25.680Z,99002.00
2022-11-17T19:13:52.609Z,99009.00
2022-11-17T19:16:21.863Z,99006.00
2022-11-17T19:18:50.510Z,99007.00
2022-11-17T19:21:26.333Z,99008.00
2022-11-17T19:23:54.793Z,99014.00
2022-11-17T19:26:24.503Z,99013.00
2022-11-17T19:28:55.786Z,99015.00
2022-11-17T19:31:22.882Z,99032.00
2022-11-17T19:33:52.974Z,99032.00
2022-11-17T19:36:24.782Z,99033.00
2022-11-17T19:38:53.527Z,99033.00
2022-11-17T19:41:36.720Z,99032.00
2022-11-17T19:44:06.129Z,99043.00
2022-11-17T19:46:33.346Z,99032.00
2022-11-17T19:49:04.227Z,99038.00
2022-11-17T19:51:36.109Z,99044.00
2022-11-17T19:54:05.462Z,99040.00
2022-11-17T19:56:32.224Z,99055.00
2022-11-17T19:58:58.998Z,99055.00
2022-11-17T20:01:29.475Z,99057.00
2022-11-17T20:03:57.666Z,99065.00
2022-11-17T20:06:29.141Z,99057.00
2022-11-17T20:08:57.564Z,99064.00
2022-11-17T20:11:26.869Z,99062.00
2022-11-17T20:13:54.753Z,99060.00
2022-11-17T20:16:26.985Z,99067.00
2022-11-17T20:18:56.169Z,99067.00
2022-11-17T20:21:23.774Z,99063.00
2022-11-17T20:23:51.236Z,99070.00
2022-11-17T20:26:20.395Z,99070.00
2022-11-17T20:28:48.073Z,99070.00
2022-11-17T20:31:17.682Z,99080.00
2022-11-17T20:33:44.242Z,99089.00
2022-11-17T20:36:16.068Z,99082.00
2022-11-17T20:38:42.820Z,99087.00
2022-11-17T20:41:09.853Z,99094.00
2022-11-17T20:43:36.600Z,99100.00
2022-11-17T20:46:04.243Z,99099.00
2022-11-17T20:48:33.936Z,99094.00
2022-11-17T20:51:05.346Z,99110.00
2022-11-17T20:53:35.720Z,99112.00
2022-11-17T20:56:07.242Z,99105.00
2022-11-17T20:58:34.093Z,99114.00
2022-11-17T21:01:10.170Z,99130.00
2022-11-17T21:03:37.346Z,99132.00
2022-11-17T21:06:05.142Z,99119.00
2022-11-17T21:08:34.608Z,99128.00
2022-11-17T21:11:04.185Z,99129.00
2022-11-17T21:13:32.936Z,99131.00
2022-11-17T21:16:12.571Z,99146.00
2022-11-17T21:18:45.742Z,99141.00
2022-11-17T21:21:12.617Z,99147.00
2022-11-17T21:23:40.397Z,99146.00
2022-11-17T21:26:08.835Z,99149.00
2022-11-17T21:28:37.012Z,99147.00
2022-11-17T21:31:10.035Z,99149.00
2022-11-17T21:33:37.262Z,99153.00
2022-11-17T21:36:10.354Z,99148.00
2022-11-17T21:38:40.169Z,99155.00
2022-11-17T21:41:12.681Z,99162.00
2022-11-17T21:43:40.911Z,99166.00
2022-11-17T21:46:09.861Z,99167.00
2022-11-17T21:48:37.512Z,99174.00
2022-11-17T21:51:05.997Z,99166.00
2022-11-17T21:53:35.048Z,99171.00
2022-11-17T21:56:03.233Z,99179.00
2022-11-17T21:58:30.058Z,99179.00
2022-11-17T22:00:57.318Z,99190.00
2022-11-17T22:03:24.884Z,99186.00
2022-11-17T22:05:52.433Z,99191.00
2022-11-17T22:08:19.555Z,99193.00
2022-11-17T22:10:46.130Z,99202.00
2022-11-17T22:13:12.759Z,99194.00
2022-11-17T22:15:39.363Z,99209.00
2022-11-17T22:18:06.102Z,99212.00
2022-11-17T22:20:32.723Z,99213.00
2022-11-17T22:22:59.321Z,99211.00
2022-11-17T22:25:44.344Z,99215.00
2022-11-17T22:28:12.052Z,99231.00
2022-11-17T22:30:39.389Z,99224.00
2022-11-17T22:33:05.969Z,99221.00
2022-11-17T22:35:32.622Z,99227.00
2022-11-17T22:37:59.308Z,99229.00
2022-11-17T22:40:25.894Z,99236.00
2022-11-17T22:42:52.794Z,99244.00
2022-11-17T22:45:19.594Z,99246.00
2022-11-17T22:47:46.330Z,99242.00
2022-11-17T22:50:13.166Z,99253.00
2022-11-17T22:52:41.034Z,99258.00
2022-11-17T22:55:08.143Z,99265.00
2022-11-17T22:57:34.708Z,99260.00
2022-11-17T23:00:01.438Z,99266.00
2022-11-17T23:02:27.982Z,99272.00
2022-11-17T23:04:54.561Z,99272.00
2022-11-17T23:07:21.175Z,99263.00
2022-11-17T23:09:47.809Z,99270.00
2022-11-17T23:12:14.638Z,99274.00
2022-11-17T23:14:41.521Z,99283.00
2022-11-17T23:17:08.122Z,99281.00
2022-11-17T23:19:37.720Z,99280.00
2022-11-17T23:22:04.283Z,99285.00
2022-11-17T23:24:30.876Z,99288.00
2022-11-17T23:26:57.481Z,99305.00
2022-11-17T23:29:24.067Z,99298.00
2022-11-17T23:31:50.623Z,99309.00
2022-11-17T23:34:17.226Z,99318.00
2022-11-17T23:36:43.775Z,99313.00
2022-11-17T23:39:10.403Z,99311.00
2022-11-17T23:41:37.296Z,99316.00
2022-11-17T23:44:04.055Z,99319.00
2022-11-17T23:46:30.637Z,99323.00
2022-11-17T23:48:57.342Z,99320.00
2022-11-17T23:51:25.919Z,99327.00
2022-11-17T23:53:53.111Z,99334.00
2022-11-17T23:56:20.682Z,99330.00
2022-11-17T23:58:47.413Z,99331.00
